createdAt,value
2022-12-13T00:01:34.581Z,17.25
2022-12-13T00:04:04.444Z,16.90
2022-12-13T00:06:34.459Z,17.17
2022-12-13T00:09:05.410Z,15.68
2022-12-13T00:11:34.884Z,16.83
2022-12-13T00:14:17.159Z,16.10
2022-12-13T00:16:50.114Z,16.92
2022-12-13T00:19:37.564Z,16.88
2022-12-13T00:22:25.238Z,16.73
2022-12-13T00:25:13.369Z,15.50
2022-12-13T00:27:45.167Z,15.63
2022-12-13T00:30:15.765Z,16.05
2022-12-13T00:32:59.973Z,17.63
2022-12-13T00:35:50.349Z,15.77
2022-12-13T00:38:21.467Z,16.98
2022-12-13T00:40:50.653Z,16.30
2022-12-13T00:43:19.184Z,14.93
2022-12-13T00:46:16.454Z,15.15
2022-12-13T00:48:50.032Z,16.20
2022-12-13T00:51:37.782Z,16.45
2022-12-13T00:54:25.124Z,16.00
2022-12-13T00:57:12.774Z,16.33
2022-12-13T01:00:00.613Z,16.77
2022-12-13T01:02:48.166Z,17.27
2022-12-13T01:06:12.836Z,16.42
2022-12-13T01:08:29.046Z,16.40
2022-12-13T01:10:57.335Z,16.27
2022-12-13T01:13:25.597Z,15.68
2022-12-13T01:15:54.209Z,17.52
2022-12-13T01:18:22.757Z,16.95
2022-12-13T01:21:14.953Z,16.27
2022-12-13T01:24:06.162Z,16.67
2022-12-13T01:26:57.214Z,16.98
2022-12-13T01:29:44.998Z,16.05
2022-12-13T01:32:27.363Z,17.25
2022-12-13T01:35:17.564Z,17.80
2022-12-13T01:38:08.263Z,15.90
2022-12-13T01:41:04.169Z,16.45
2022-12-13T01:43:48.864Z,16.45
2022-12-13T01:46:19.861Z,16.42
2022-12-13T01:48:51.895Z,16.52
2022-12-13T01:51:20.765Z,16.70
2022-12-13T01:53:58.559Z,15.90
2022-12-13T01:56:50.349Z,16.67
2022-12-13T01:59:31.786Z,17.40
2022-12-13T02:02:15.005Z,16.20
2022-12-13T02:05:05.777Z,16.25
2022-12-13T02:07:54.052Z,17.20
2022-12-13T02:10:28.963Z,17.15
2022-12-13T02:13:12.341Z,16.38
2022-12-13T02:15:49.939Z,15.98
2022-12-13T02:18:25.747Z,17.08
2022-12-13T02:20:53.849Z,17.23
2022-12-13T02:23:27.787Z,17.45
2022-12-13T02:26:14.776Z,17.17
2022-12-13T02:28:55.381Z,18.02
2022-12-13T02:31:26.545Z,16.55
2022-12-13T02:33:57.939Z,16.50
2022-12-13T02:36:36.664Z,16.60
2022-12-13T02:39:14.445Z,15.52
2022-12-13T02:42:01.702Z,16.10
2022-12-13T02:44:40.821Z,15.98
2022-12-13T02:47:22.467Z,18.20
2022-12-13T02:49:59.853Z,16.17
2022-12-13T02:52:36.855Z,16.58
2022-12-13T02:55:17.858Z,15.32
2022-12-13T02:58:05.539Z,16.38
2022-12-13T03:01:28.415Z,16.17
2022-12-13T03:04:26.688Z,14.80
2022-12-13T03:07:01.140Z,16.48
2022-12-13T03:09:54.946Z,14.55
2022-12-13T03:12:41.265Z,17.25
2022-12-13T03:15:27.869Z,14.65
2022-12-13T03:18:15.920Z,14.18
2022-12-13T03:20:47.452Z,16.45
2022-12-13T03:23:19.154Z,15.45
2022-12-13T03:25:49.114Z,14.38
2022-12-13T03:28:18.012Z,15.73
2022-12-13T03:31:06.003Z,14.63
2022-12-13T03:33:55.669Z,15.57
2022-12-13T03:36:43.441Z,14.65
2022-12-13T03:39:31.894Z,14.98
2022-12-13T03:42:19.749Z,14.60
2022-12-13T03:45:07.107Z,15.25
2022-12-13T03:48:00.214Z,14.27
2022-12-13T03:50:48.281Z,15.98
2022-12-13T03:53:22.948Z,14.95
2022-12-13T03:56:01.621Z,14.95
2022-12-13T03:58:36.053Z,15.93
2022-12-13T04:01:07.216Z,15.50
2022-12-13T04:03:57.341Z,15.05
2022-12-13T04:06:47.426Z,14.93
2022-12-13T04:09:34.979Z,15.77
2022-12-13T04:12:43.090Z,15.70
2022-12-13T04:15:16.250Z,14.82
2022-12-13T04:17:51.004Z,14.90
2022-12-13T04:20:19.610Z,15.47
2022-12-13T04:22:49.438Z,15.02
2022-12-13T04:25:20.232Z,14.55
2022-12-13T04:27:49.704Z,14.35
2022-12-13T04:30:21.133Z,14.43
2022-12-13T04:33:04.981Z,14.15
2022-12-13T04:35:34.021Z,15.70
2022-12-13T04:38:21.650Z,15.80
2022-12-13T04:41:15.225Z,15.40
2022-12-13T04:44:27.651Z,15.57
2022-12-13T04:47:16.847Z,14.65
2022-12-13T04:52:47.199Z,13.90
2022-12-13T04:55:34.798Z,13.63
2022-12-13T04:58:03.900Z,15.57
2022-12-13T05:00:32.311Z,15.13
2022-12-13T05:03:15.741Z,15.75
2022-12-13T05:05:44.160Z,14.68
2022-12-13T05:08:31.776Z,13.82
2022-12-13T05:11:22.877Z,14.43
2022-12-13T05:14:10.680Z,14.02
2022-12-13T05:16:58.350Z,15.88
2022-12-13T05:19:45.974Z,14.85
2022-12-13T05:22:33.713Z,16.50
2022-12-13T05:25:21.240Z,17.15
2022-12-13T05:28:28.121Z,15.52
2022-12-13T05:31:06.795Z,14.43
2022-12-13T05:33:52.995Z,16.77
2022-12-13T05:36:25.199Z,18.45
2022-12-13T05:41:41.258Z,13.93
2022-12-13T05:44:28.837Z,15.32
2022-12-13T05:47:14.140Z,15.57
2022-12-13T05:50:01.733Z,15.93
2022-12-13T05:52:49.246Z,12.95
2022-12-13T05:55:33.594Z,16.02
2022-12-13T05:58:23.244Z,14.70
2022-12-13T06:01:12.877Z,14.27
2022-12-13T06:03:45.218Z,14.73
2022-12-13T06:06:14.294Z,13.52
2022-12-13T06:08:42.620Z,15.23
2022-12-13T06:11:31.224Z,13.10
2022-12-13T06:14:01.680Z,13.30
2022-12-13T06:16:31.676Z,13.57
2022-12-13T06:19:04.279Z,14.50
2022-12-13T06:21:43.989Z,15.75
2022-12-13T06:24:15.878Z,14.10
2022-12-13T06:26:46.943Z,14.40
2022-12-13T06:29:23.199Z,14.40
2022-12-13T06:31:53.715Z,14.73
2022-12-13T06:34:33.297Z,14.80
2022-12-13T06:37:25.466Z,15.33
2022-12-13T06:40:08.522Z,15.15
2022-12-13T06:42:43.366Z,14.38
2022-12-13T06:45:26.459Z,14.98
2022-12-13T06:48:20.160Z,16.77
2022-12-13T06:51:08.902Z,15.32
2022-12-13T06:53:49.119Z,21.10
2022-12-13T06:56:39.477Z,18.35
2022-12-13T06:59:21.241Z,16.63
2022-12-13T07:02:24.256Z,17.58
2022-12-13T07:05:15.297Z,15.18
2022-12-13T07:08:02.969Z,14.20
2022-12-13T07:10:50.935Z,13.38
2022-12-13T07:13:31.690Z,15.02
2022-12-13T07:16:19.816Z,14.82
2022-12-13T07:19:22.616Z,12.80
2022-12-13T07:22:14.017Z,13.07
2022-12-13T07:25:00.348Z,14.88
2022-12-13T07:27:48.395Z,13.73
2022-12-13T07:30:17.890Z,12.25
2022-12-13T07:33:06.013Z,12.25
2022-12-13T07:35:39.581Z,14.68
2022-12-13T07:38:08.882Z,13.93
2022-12-13T07:40:58.895Z,15.15
2022-12-13T07:43:46.653Z,14.95
2022-12-13T07:46:34.318Z,13.38
2022-12-13T07:49:19.580Z,14.15
2022-12-13T07:52:11.379Z,13.75
2022-12-13T07:54:58.970Z,14.40
2022-12-13T07:57:49.052Z,12.93
2022-12-13T08:00:37.488Z,15.75
2022-12-13T08:03:26.610Z,14.68
2022-12-13T08:06:01.791Z,14.77
2022-12-13T08:08:32.853Z,14.77
2022-12-13T08:11:05.625Z,13.38
2022-12-13T08:13:35.101Z,15.65
2022-12-13T08:16:04.749Z,17.60
2022-12-13T08:19:02.697Z,15.55
2022-12-13T08:21:56.310Z,16.58
2022-12-13T08:24:45.301Z,17.45
2022-12-13T08:27:16.182Z,16.98
2022-12-13T08:29:44.831Z,18.38
2022-12-13T08:32:16.489Z,17.77
2022-12-13T08:34:45.533Z,17.00
2022-12-13T08:37:14.017Z,17.50
2022-12-13T08:39:45.600Z,16.73
2022-12-13T08:42:19.542Z,16.63
2022-12-13T08:45:10.483Z,18.15
2022-12-13T08:47:42.231Z,17.90
2022-12-13T08:50:12.022Z,17.45
2022-12-13T08:52:48.350Z,16.77
2022-12-13T08:55:22.370Z,17.27
2022-12-13T08:58:06.964Z,17.63
2022-12-13T09:00:37.923Z,18.52
2022-12-13T09:03:24.799Z,25.50
2022-12-13T09:06:16.253Z,20.63
2022-12-13T09:09:04.014Z,19.90
2022-12-13T09:11:51.660Z,18.77
2022-12-13T09:14:47.970Z,20.35
2022-12-13T09:17:24.225Z,19.65
2022-12-13T09:19:58.014Z,18.58
2022-12-13T09:22:33.337Z,21.05
2022-12-13T09:25:04.807Z,20.00
2022-12-13T09:27:52.416Z,19.65
2022-12-13T09:30:40.392Z,18.38
2022-12-13T09:33:30.095Z,19.63
2022-12-13T09:36:20.215Z,19.40
2022-12-13T09:39:07.858Z,17.75
2022-12-13T09:42:01.356Z,18.50
2022-12-13T09:44:42.762Z,19.42
2022-12-13T09:47:47.183Z,18.23
2022-12-13T09:50:30.467Z,17.85
2022-12-13T09:53:12.044Z,16.30
2022-12-13T09:56:10.592Z,18.23
2022-12-13T09:58:42.804Z,17.33
2022-12-13T10:01:22.534Z,17.55
2022-12-13T10:04:14.114Z,17.92
2022-12-13T10:07:03.611Z,18.80
2022-12-13T10:09:46.407Z,17.73
2022-12-13T10:12:29.066Z,17.60
2022-12-13T10:15:21.972Z,17.65
2022-12-13T10:18:11.948Z,15.75
2022-12-13T10:20:58.429Z,17.33
2022-12-13T10:23:53.042Z,14.73
2022-12-13T10:26:24.476Z,14.80
2022-12-13T10:29:07.688Z,13.32
2022-12-13T10:31:40.656Z,17.23
2022-12-13T10:34:25.951Z,14.48
2022-12-13T10:37:25.378Z,14.25
2022-12-13T10:40:45.776Z,15.88
2022-12-13T10:43:35.129Z,14.85
2022-12-13T10:46:24.856Z,15.25
2022-12-13T10:48:56.038Z,14.07
2022-12-13T10:51:25.558Z,12.38
2022-12-13T10:53:59.474Z,14.95
2022-12-13T10:56:36.741Z,12.73
2022-12-13T10:59:17.023Z,11.68
2022-12-13T11:01:46.279Z,11.43
2022-12-13T11:04:26.954Z,11.98
2022-12-13T11:07:25.036Z,11.38
2022-12-13T11:10:04.757Z,10.93
2022-12-13T11:12:41.134Z,11.23
2022-12-13T11:15:23.041Z,12.77
2022-12-13T11:18:19.644Z,10.93
2022-12-13T11:23:47.506Z,9.15
2022-12-13T11:26:32.086Z,9.52
2022-12-13T11:29:27.167Z,10.70
2022-12-13T11:32:01.879Z,10.43
2022-12-13T11:34:52.943Z,10.57
2022-12-13T11:37:21.010Z,9.85
2022-12-13T11:40:05.969Z,9.35
2022-12-13T11:42:49.511Z,9.80
2022-12-13T11:45:40.348Z,10.57
2022-12-13T11:48:20.871Z,9.77
2022-12-13T11:50:52.588Z,10.95
2022-12-13T11:53:39.578Z,10.43
2022-12-13T11:56:27.505Z,9.55
2022-12-13T11:59:05.885Z,10.27
2022-12-13T12:01:41.361Z,8.20
2022-12-13T12:04:16.621Z,8.82
2022-12-13T12:07:12.152Z,8.75
2022-12-13T12:09:59.964Z,8.63
2022-12-13T12:12:32.932Z,8.43
2022-12-13T12:15:16.367Z,10.40
2022-12-13T12:17:47.527Z,9.07
2022-12-13T12:20:23.418Z,6.55
2022-12-13T12:22:59.459Z,9.13
2022-12-13T12:25:36.215Z,8.13
2022-12-13T12:28:26.634Z,8.45
2022-12-13T12:30:57.905Z,8.30
2022-12-13T12:33:32.233Z,7.72
2022-12-13T12:36:18.978Z,8.73
2022-12-13T12:39:00.957Z,8.65
2022-12-13T12:41:40.567Z,7.60
2022-12-13T12:44:37.948Z,7.63
2022-12-13T12:47:31.940Z,8.80
2022-12-13T12:49:59.663Z,7.93
2022-12-13T12:52:38.236Z,8.80
2022-12-13T12:55:16.463Z,7.88
2022-12-13T12:57:44.466Z,7.85
2022-12-13T13:00:22.777Z,8.38
2022-12-13T13:03:27.029Z,8.50
2022-12-13T13:06:08.152Z,8.55
2022-12-13T13:08:43.353Z,8.13
2022-12-13T13:11:25.930Z,8.13
2022-12-13T13:14:02.023Z,8.65
2022-12-13T13:16:38.377Z,7.20
2022-12-13T13:19:12.580Z,7.30
2022-12-13T13:21:47.407Z,7.53
2022-12-13T13:24:19.822Z,7.45
2022-12-13T13:26:54.093Z,7.82
2022-12-13T13:29:27.640Z,8.15
2022-12-13T13:32:03.108Z,8.68
2022-12-13T13:34:37.637Z,8.93
2022-12-13T13:37:26.155Z,7.95
2022-12-13T13:40:01.710Z,7.90
2022-12-13T13:43:12.789Z,7.07
2022-12-13T13:45:53.967Z,7.95
2022-12-13T13:48:28.413Z,7.70
2022-12-13T13:51:15.061Z,8.20
2022-12-13T13:54:01.653Z,7.93
2022-12-13T13:56:36.170Z,7.97
2022-12-13T13:59:15.078Z,7.72
2022-12-13T14:01:53.019Z,7.68
2022-12-13T14:04:31.550Z,7.55
2022-12-13T14:07:02.859Z,7.15
2022-12-13T14:09:49.407Z,7.25
2022-12-13T14:12:39.126Z,8.30
2022-12-13T14:15:30.083Z,7.85
2022-12-13T14:18:21.076Z,8.02
2022-12-13T14:20:55.301Z,7.07
2022-12-13T14:23:32.432Z,6.38
2022-12-13T14:26:03.420Z,8.13
2022-12-13T14:28:50.283Z,6.95
2022-12-13T14:31:47.777Z,7.45
2022-12-13T14:34:36.246Z,6.97
2022-12-13T14:37:08.093Z,6.45
2022-12-13T14:39:38.299Z,7.00
2022-12-13T14:42:24.670Z,7.80
2022-12-13T14:44:54.075Z,8.07
2022-12-13T14:47:23.029Z,6.65
2022-12-13T14:49:55.159Z,7.07
2022-12-13T14:52:41.573Z,6.35
2022-12-13T14:55:37.340Z,7.47
2022-12-13T14:58:24.678Z,6.97
2022-12-13T15:03:45.737Z,7.53
2022-12-13T15:06:30.496Z,6.50
2022-12-13T15:09:15.922Z,5.95
2022-12-13T15:12:23.481Z,7.80
2022-12-13T15:15:03.029Z,7.10
2022-12-13T15:17:39.696Z,7.65
2022-12-13T15:20:39.428Z,6.90
2022-12-13T15:23:23.247Z,7.53
2022-12-13T15:26:00.139Z,7.13
2022-12-13T15:28:34.835Z,7.80
2022-12-13T15:31:05.121Z,7.88
2022-12-13T15:33:48.290Z,6.93
2022-12-13T15:36:28.981Z,8.18
2022-12-13T15:39:01.439Z,8.88
2022-12-13T15:41:36.829Z,9.50
2022-12-13T15:44:07.617Z,8.93
2022-12-13T15:46:49.245Z,7.80
2022-12-13T15:49:45.855Z,9.27
2022-12-13T15:52:15.930Z,9.48
2022-12-13T15:54:58.358Z,10.40
2022-12-13T15:57:27.821Z,10.63
2022-12-13T16:00:07.075Z,11.30
2022-12-13T16:03:09.303Z,10.77
2022-12-13T16:05:48.541Z,11.05
2022-12-13T16:08:32.248Z,11.55
2022-12-13T16:11:01.561Z,11.35
2022-12-13T16:13:35.519Z,11.10
2022-12-13T16:16:10.547Z,10.60
2022-12-13T16:18:57.628Z,9.52
2022-12-13T16:21:26.611Z,11.55
2022-12-13T16:23:56.733Z,10.70
2022-12-13T16:26:29.859Z,9.85
2022-12-13T16:29:00.521Z,9.45
2022-12-13T16:31:35.604Z,10.82
2022-12-13T16:36:35.371Z,11.07
2022-12-13T16:39:25.025Z,9.52
2022-12-13T16:42:12.595Z,10.18
2022-12-13T16:45:32.895Z,10.55
2022-12-13T16:48:07.826Z,10.35
2022-12-13T16:50:57.974Z,10.52
2022-12-13T16:53:46.119Z,12.25
2022-12-13T16:56:33.856Z,13.13
2022-12-13T16:59:22.974Z,12.57
2022-12-13T17:01:54.555Z,14.23
2022-12-13T17:04:24.374Z,13.52
2022-12-13T17:06:55.129Z,14.60
2022-12-13T17:09:27.024Z,12.07
2022-12-13T17:11:58.640Z,13.38
2022-12-13T17:14:27.411Z,12.38
2022-12-13T17:17:00.876Z,12.10
2022-12-13T17:19:32.864Z,12.27
2022-12-13T17:22:20.538Z,11.75
2022-12-13T17:25:08.740Z,13.63
2022-12-13T17:27:56.706Z,12.18
2022-12-13T17:30:46.936Z,13.88
2022-12-13T17:33:43.059Z,12.70
2022-12-13T17:36:31.609Z,11.80
2022-12-13T17:39:18.491Z,11.95
2022-12-13T17:42:06.179Z,12.70
2022-12-13T17:44:36.048Z,11.32
2022-12-13T17:47:04.382Z,11.50
2022-12-13T17:49:35.826Z,11.98
2022-12-13T17:52:07.229Z,11.98
2022-12-13T17:54:54.841Z,12.00
2022-12-13T17:57:26.073Z,11.55
2022-12-13T18:00:14.911Z,12.13
2022-12-13T18:03:03.594Z,10.98
2022-12-13T18:06:02.512Z,11.70
2022-12-13T18:08:50.459Z,11.80
2022-12-13T18:11:41.334Z,11.57
2022-12-13T18:14:29.502Z,10.70
2022-12-13T18:16:58.424Z,11.43
2022-12-13T18:19:30.197Z,12.77
2022-12-13T18:21:59.631Z,11.57
2022-12-13T18:24:28.358Z,11.45
2022-12-13T18:26:58.288Z,12.23
2022-12-13T18:29:30.779Z,12.85
2022-12-13T18:32:00.404Z,12.60
2022-12-13T18:34:31.762Z,11.55
2022-12-13T18:37:02.540Z,12.07
2022-12-13T18:39:32.569Z,11.68
2022-12-13T18:42:02.606Z,10.70
2022-12-13T18:44:37.825Z,13.20
2022-12-13T18:47:10.123Z,11.32
2022-12-13T18:49:58.674Z,11.13
2022-12-13T18:52:43.290Z,11.20
2022-12-13T18:55:30.958Z,10.98
2022-12-13T18:58:18.687Z,10.40
2022-12-13T19:00:47.858Z,12.65
2022-12-13T19:03:29.261Z,11.77
2022-12-13T19:05:59.064Z,11.38
2022-12-13T19:08:29.907Z,11.52
2022-12-13T19:11:17.543Z,10.13
2022-12-13T19:13:53.018Z,11.52
2022-12-13T19:16:23.787Z,10.82
2022-12-13T19:18:55.450Z,12.63
2022-12-13T19:21:24.434Z,13.50
2022-12-13T19:23:57.932Z,13.68
2022-12-13T19:26:28.667Z,14.75
2022-12-13T19:28:59.168Z,14.68
2022-12-13T19:31:31.995Z,13.07
2022-12-13T19:36:31.332Z,13.50
2022-12-13T19:38:59.990Z,15.95
2022-12-13T19:41:47.635Z,13.57
2022-12-13T19:44:35.584Z,13.85
2022-12-13T19:47:25.540Z,13.10
2022-12-13T19:50:07.180Z,12.65
2022-12-13T19:52:40.129Z,15.52
2022-12-13T19:55:26.797Z,14.98
2022-12-13T19:58:16.778Z,13.15
2022-12-13T20:01:05.481Z,16.77
2022-12-13T20:03:53.018Z,16.67
2022-12-13T20:06:45.423Z,16.15
2022-12-13T20:09:33.201Z,15.38
2022-12-13T20:12:23.240Z,14.90
2022-12-13T20:14:54.920Z,15.25
2022-12-13T20:17:42.462Z,16.30
2022-12-13T20:20:47.243Z,15.95
2022-12-13T20:23:38.727Z,15.52
2022-12-13T20:26:09.784Z,13.48
2022-12-13T20:28:38.975Z,13.13
2022-12-13T20:31:09.897Z,13.80
2022-12-13T20:33:46.067Z,12.45
2022-12-13T20:36:25.632Z,14.35
2022-12-13T20:38:59.519Z,13.50
2022-12-13T20:41:30.052Z,12.90
2022-12-13T20:43:59.289Z,12.43
2022-12-13T20:46:49.658Z,15.38
2022-12-13T20:49:38.122Z,13.25
2022-12-13T20:52:25.778Z,11.90
2022-12-13T20:55:07.177Z,13.20
2022-12-13T20:57:54.847Z,13.15
2022-12-13T21:00:23.783Z,13.65
2022-12-13T21:03:13.760Z,12.50
2022-12-13T21:05:46.560Z,14.30
2022-12-13T21:08:57.102Z,13.13
2022-12-13T21:11:38.186Z,14.25
2022-12-13T21:14:23.091Z,12.18
2022-12-13T21:17:04.599Z,13.05
2022-12-13T21:19:52.284Z,13.07
2022-12-13T21:22:40.087Z,12.85
2022-12-13T21:25:23.622Z,13.40
2022-12-13T21:28:11.415Z,13.57
2022-12-13T21:30:40.275Z,13.52
2022-12-13T21:33:26.410Z,14.98
2022-12-13T21:36:15.521Z,13.95
2022-12-13T21:39:04.604Z,14.30
2022-12-13T21:41:53.761Z,13.57
2022-12-13T21:44:41.459Z,13.80
2022-12-13T21:47:27.615Z,13.43
2022-12-13T21:50:18.759Z,12.52
2022-12-13T21:52:51.003Z,13.65
2022-12-13T21:58:29.838Z,14.15
2022-12-13T22:01:00.509Z,14.02
2022-12-13T22:03:48.335Z,14.07
2022-12-13T22:06:35.836Z,13.27
2022-12-13T22:09:23.419Z,14.60
2022-12-13T22:12:17.459Z,14.15
2022-12-13T22:15:06.361Z,14.60
2022-12-13T22:17:53.885Z,12.35
2022-12-13T22:20:40.235Z,12.27
2022-12-13T22:23:27.944Z,12.48
2022-12-13T22:26:15.518Z,12.05
2022-12-13T22:29:05.870Z,12.98
2022-12-13T22:31:53.557Z,12.70
2022-12-13T22:34:43.504Z,12.75
2022-12-13T22:37:14.877Z,12.43
2022-12-13T22:40:02.984Z,13.07
2022-12-13T22:42:53.027Z,12.32
2022-12-13T22:45:40.801Z,12.95
2022-12-13T22:48:09.349Z,12.32
2022-12-13T22:50:41.506Z,11.43
2022-12-13T22:53:10.579Z,12.98
2022-12-13T22:55:38.808Z,12.30
2022-12-13T22:58:08.158Z,11.50
2022-12-13T23:00:42.450Z,11.32
2022-12-13T23:03:30.138Z,12.45
2022-12-13T23:06:06.314Z,12.50
2022-12-13T23:08:43.270Z,12.10
2022-12-13T23:11:32.732Z,12.35
2022-12-13T23:14:02.198Z,11.80
2022-12-13T23:16:34.158Z,12.52
2022-12-13T23:19:39.248Z,12.15
2022-12-13T23:21:54.909Z,12.35
2022-12-13T23:24:26.214Z,13.95
2022-12-13T23:26:54.508Z,12.32
2022-12-13T23:29:23.597Z,12.52
2022-12-13T23:31:52.112Z,13.68
2022-12-13T23:34:21.260Z,13.70
2022-12-13T23:36:50.325Z,11.95
2022-12-13T23:39:19.530Z,12.15
2022-12-13T23:41:47.930Z,12.57
2022-12-13T23:44:16.389Z,10.90
2022-12-13T23:47:04.008Z,12.15
2022-12-13T23:49:51.653Z,12.73
2022-12-13T23:52:41.822Z,11.80
2022-12-13T23:55:29.398Z,12.65
2022-12-13T23:58:02.005Z,10.60
